Relevés horaires Bouveret (Suisse)


Relevés horaires à Bouveret - Mercredi 18 Avr. 2018
Heure UTC1 Température [°C] Vent [km/h] Hum. [%] Pres.4 [hPa] Visi. [Km] Nébu. [octa] Préc.5 [mm] Cond.
2m. Res. Ros. Dir.2 Vit. Moy. Raf.3
23:00 15.7 15.7 6.4 E 1.9 -- 13.0 54 1027.2(0.8/3h) -- -- -- --
22:00 16.5 16.5 9.6 S 3.7 -- 16.7 64 1026.8(0.7/3h) -- -- -- --
21:00 17.2 16.7 7.2 SSE 16.7 -- 29.6 52 1026.3(0.6/3h) -- -- -- --
20:00 17.2 17.1 8.2 SSE 11.1 -- 16.7 55 1026.1(0.2/3h) -- -- -- --
19:00 17.7 17.7 8.6 SE 5.6 -- 7.4 55 1025.9(-0.2/3h) -- -- -- --
18:00 18.5 18.5 10.5 OSO 1.9 -- 7.4 60 1025.5(-0.8/3h) -- -- -- --
17:00 17.9 17.9 9.5 OSO 1.9 -- 7.4 58 1025.8(-1.1/3h) -- -- -- --
16:00 18.2 18.2 9.1 NE 1.9 -- 5.6 55 1026(-1.1/3h) -- -- -- --
15:00 17.1 17.1 9.7 NNO 5.6 -- 7.4 62 1026.5(-1.2/3h) -- -- -- --
14:00 16.6 16.6 8.3 NO 3.7 -- 5.6 58 1027.1(-1.2/3h) -- -- -- --
13:00 16.1 16.1 7.7 ONO 5.6 -- 7.4 57 1027.5(-1.0/3h) -- -- -- --
12:00 14.7 14.7 8.5 NO 3.7 -- 18.5 66 1028.2(-0.5/3h) -- -- -- --
11:00 13.7 13.7 9.1 N 3.7 -- 7.4 74 1028.9(0.2/3h) -- -- -- --
10:00 13.2 12.9 9.8 O 7.4 -- 13.0 80 1029(0.5/3h) -- -- -- --
09:00 12.9 11.9 10.2 ONO 11.1 -- 18.5 84 1029(0.7/3h) -- -- -- --
08:00 13.1 13.1 7.5 ONO 5.6 -- 7.4 69 1028.7(1.0/3h) -- -- -- --
07:00 14.5 14.5 5.1 SSE 3.7 -- 18.5 53 1028.3(1.1/3h) -- -- -- --
06:00 12.9 12.9 5.3 S 3.7 -- 18.5 60 1028.3(0.9/3h) -- -- -- --
05:00 12.3 12.3 7.5 SO 1.9 -- 5.6 72 1027.8(0.3/3h) -- -- -- --
04:00 12.8 12.8 7.2 S 1.9 -- 14.8 69 1027.4(0.4/3h) -- -- -- --
03:00 12.6 12.6 7.2 SSE 5.6 -- 18.5 70 1027.4(0.6/3h) -- -- -- --
02:00 14.2 14 8.5 SO 7.4 -- 13.0 69 1027.2(0.7/3h) -- -- -- --
01:00 15.1 14.8 7.5 SSE 9.3 -- 18.5 60 1026.6(0.5/3h) -- -- -- --
00:00 14.8 13.9 7.9 SSE 14.8 -- 29.6 63 1026.4(0.3/3h) -- -- -- --

1 Coordinated Universal Time. Actuellement il est 00:00 locale et 22:00 UTC.

2 Le vent souffle depuis la direction indiquée vers la direction oposée.

3 Les rafales max. sont disponible 40 min après l'heure du relevé.

4 Pour les stations d'altitude (plus de 600m) le géopotentiel du niveau le plus proche de la pression obligatoire est indiqué.

5 Les stations disposant d'un diffuseur peuvent indiquer "trace". Cela signifie que des précipitations ont touchés le sol mais que la quantité est inférieure à 0.1 mm.

Copyright

Les données affichées sur cette page sont la propriété exclusive de Météo Suisse.

Récapitulatif de la journée
Température [°C] Vent [km/h] Ensoleillement4 [h] Precipitations totale5 [mm] Pression [Hpa]
Min1 Max.2 Moy.3 Max. Min Max.
11.8 18.9 0 29.6 0 h 0 min 0 1025.5 1029.0

1 Température minimale relevée entre 18:00 UTC la veille et 18:00 UTC le jour donné.

2 Température maximale relevée entre 06:00 UTC le jour donné et 06:00 UTC le lendemain.

3 Vent moyen de la journée basé sur les relevés horaires.

4 Ensoleillement en heures relevé entre 06:00 UTC la veille et 06:00 UTC le jour donné.

5 Précipitations totales tombées entre 06:00 UTC la jour donné et 06:00 UTC le lendemain.

Graphiques horaires